Time;durP1;ratioP1;P1;durP2;ratioP2;P2;SDS_P1;SDS_P2;PMS_P1;PMS_P2;Temp;Humidity;BMP_temperature;BMP_pressure;BME280_temperature;BME280_humidity;BME280_pressure;Samples;Min_cycle;Max_cycle;Signal;HPM_P1;HPM_P2
2023/08/08 00:01:16;;;;;;;0.60;0.60;;;;;;;;;;5000295;28;20061;-71
2023/08/08 00:03:42;;;;;;;11.30;0.88;;;;;;;;;;5000925;28;20104;-72
2023/08/08 00:06:07;;;;;;;0.77;0.77;;;;;;;;;;5005794;28;20030;-73
2023/08/08 00:08:33;;;;;;;0.82;0.80;;;;;;;;;;5001169;28;20054;-72
2023/08/08 00:10:58;;;;;;;0.90;0.60;;;;;;;;;;4998222;28;20052;-72
2023/08/08 00:13:24;;;;;;;1.95;0.68;;;;;;;;;;5000557;28;20136;-71
2023/08/08 00:15:49;;;;;;;0.60;0.60;;;;;;;;;;5000893;28;20037;-71
2023/08/08 00:18:14;;;;;;;0.45;0.45;;;;;;;;;;4999719;28;20049;-71
2023/08/08 00:20:40;;;;;;;0.57;0.57;;;;;;;;;;5001375;28;21044;-71
2023/08/08 00:23:06;;;;;;;0.68;0.68;;;;;;;;;;5000193;28;20049;-71
2023/08/08 00:25:31;;;;;;;1.45;0.70;;;;;;;;;;4999938;28;20495;-71
2023/08/08 00:27:57;;;;;;;0.85;0.70;;;;;;;;;;5000116;28;20491;-71
2023/08/08 00:30:22;;;;;;;0.70;0.70;;;;;;;;;;5005384;28;20121;-71
2023/08/08 00:32:48;;;;;;;0.50;0.50;;;;;;;;;;4998848;28;20558;-71
2023/08/08 00:35:13;;;;;;;0.77;0.75;;;;;;;;;;5001968;28;20051;-71
2023/08/08 00:37:39;;;;;;;2.05;0.75;;;;;;;;;;5002142;28;20570;-72
2023/08/08 00:40:05;;;;;;;1.80;0.70;;;;;;;;;;4998601;28;20034;-72
2023/08/08 00:42:31;;;;;;;0.82;0.65;;;;;;;;;;5000784;28;20052;-71
2023/08/08 00:45:01;;;;;;;0.50;0.50;;;;;;;;;;5004326;28;20041;-72
2023/08/08 00:47:27;;;;;;;0.57;0.57;;;;;;;;;;5003449;28;20045;-71
2023/08/08 00:49:55;;;;;;;0.50;0.50;;;;;;;;;;5002069;28;20475;-71
2023/08/08 00:52:21;;;;;;;0.60;0.60;;;;;;;;;;5005706;28;20137;-73
2023/08/08 00:54:46;;;;;;;0.73;0.60;;;;;;;;;;5001363;28;20144;-72
2023/08/08 00:57:12;;;;;;;1.17;0.70;;;;;;;;;;5002257;28;20069;-72
2023/08/08 00:59:37;;;;;;;0.75;0.63;;;;;;;;;;5001560;28;20406;-72
2023/08/08 01:02:03;;;;;;;0.75;0.60;;;;;;;;;;5005165;28;20064;-72
2023/08/08 01:04:29;;;;;;;0.73;0.50;;;;;;;;;;5002755;28;20131;-71
2023/08/08 01:07:04;;;;;;;1.33;0.60;;;;;;;;;;5005583;28;20044;-71
2023/08/08 01:09:38;;;;;;;0.60;0.60;;;;;;;;;;5003204;28;20088;-71
2023/08/08 01:12:06;;;;;;;0.88;0.57;;;;;;;;;;5016323;28;20508;-71
2023/08/08 01:14:32;;;;;;;2.15;0.60;;;;;;;;;;5002402;28;20065;-71
2023/08/08 01:16:59;;;;;;;0.32;0.32;;;;;;;;;;5002629;28;20041;-72
2023/08/08 01:19:28;;;;;;;0.57;0.57;;;;;;;;;;5003837;28;20153;-72
2023/08/08 01:21:56;;;;;;;1.50;0.70;;;;;;;;;;5000530;28;20052;-71
2023/08/08 01:24:25;;;;;;;0.60;0.60;;;;;;;;;;5001799;28;20514;-72
2023/08/08 01:26:51;;;;;;;0.60;0.60;;;;;;;;;;5000946;28;20050;-72
2023/08/08 01:29:16;;;;;;;0.93;0.57;;;;;;;;;;5006705;28;20079;-71
2023/08/08 01:31:42;;;;;;;0.63;0.63;;;;;;;;;;5000964;28;20045;-71
2023/08/08 01:34:07;;;;;;;1.45;0.68;;;;;;;;;;4998132;28;20153;-70
2023/08/08 01:36:49;;;;;;;2.22;0.80;;;;;;;;;;5002741;28;20080;-71
2023/08/08 01:39:19;;;;;;;0.82;0.70;;;;;;;;;;5008238;28;20054;-71
2023/08/08 01:41:47;;;;;;;0.70;0.70;;;;;;;;;;5001053;28;20042;-71
2023/08/08 01:44:13;;;;;;;0.75;0.60;;;;;;;;;;5000505;28;20069;-72
2023/08/08 01:46:39;;;;;;;1.52;0.80;;;;;;;;;;5000486;28;20042;-71
2023/08/08 01:49:04;;;;;;;0.88;0.57;;;;;;;;;;5000044;28;20054;-71
2023/08/08 01:51:30;;;;;;;0.90;0.90;;;;;;;;;;5002660;28;20561;-71
2023/08/08 01:53:56;;;;;;;1.05;0.70;;;;;;;;;;5004598;28;20427;-71
2023/08/08 01:56:22;;;;;;;0.70;0.40;;;;;;;;;;5009642;28;20089;-71
2023/08/08 01:58:47;;;;;;;0.70;0.68;;;;;;;;;;5001592;28;20135;-72
2023/08/08 02:01:13;;;;;;;0.70;0.63;;;;;;;;;;5002396;28;20042;-70
2023/08/08 02:03:38;;;;;;;0.60;0.60;;;;;;;;;;5004145;28;20494;-71
2023/08/08 02:06:04;;;;;;;0.70;0.60;;;;;;;;;;5012089;28;20111;-70
2023/08/08 02:08:29;;;;;;;0.73;0.70;;;;;;;;;;5011833;28;20049;-70
2023/08/08 02:10:55;;;;;;;0.57;0.57;;;;;;;;;;5014436;28;20053;-70
2023/08/08 02:13:20;;;;;;;1.95;0.85;;;;;;;;;;5010215;28;20050;-70
2023/08/08 02:15:47;;;;;;;0.70;0.60;;;;;;;;;;5009896;28;20053;-70
2023/08/08 02:18:12;;;;;;;0.73;0.70;;;;;;;;;;5000060;28;20144;-70
2023/08/08 02:20:38;;;;;;;0.60;0.60;;;;;;;;;;5003330;28;20095;-70
2023/08/08 02:23:04;;;;;;;0.70;0.70;;;;;;;;;;5005149;28;20671;-70
2023/08/08 02:25:30;;;;;;;1.65;0.70;;;;;;;;;;5006439;28;20076;-70
2023/08/08 02:27:56;;;;;;;1.08;0.77;;;;;;;;;;5001830;28;20085;-70
2023/08/08 02:30:22;;;;;;;0.90;0.70;;;;;;;;;;5008686;28;20060;-68
2023/08/08 02:32:47;;;;;;;0.52;0.52;;;;;;;;;;5001081;28;20038;-68
2023/08/08 02:35:13;;;;;;;0.70;0.70;;;;;;;;;;5003091;28;20107;-68
2023/08/08 02:37:38;;;;;;;0.75;0.60;;;;;;;;;;4999582;28;20056;-68
2023/08/08 02:40:05;;;;;;;0.65;0.50;;;;;;;;;;5001403;28;20048;-69
2023/08/08 02:42:31;;;;;;;0.63;0.63;;;;;;;;;;5000468;28;20041;-68
2023/08/08 02:44:57;;;;;;;2.65;1.00;;;;;;;;;;4999418;28;20045;-68
2023/08/08 02:47:23;;;;;;;0.85;0.77;;;;;;;;;;4999620;28;20402;-68
2023/08/08 02:49:49;;;;;;;0.68;0.68;;;;;;;;;;5003475;28;20045;-68
2023/08/08 02:52:14;;;;;;;0.75;0.75;;;;;;;;;;5001314;28;20044;-69
2023/08/08 02:54:40;;;;;;;1.10;1.00;;;;;;;;;;5000363;28;20450;-70
2023/08/08 02:57:05;;;;;;;1.70;0.70;;;;;;;;;;4998734;28;20066;-70
2023/08/08 02:59:31;;;;;;;3.35;0.70;;;;;;;;;;5002121;28;20045;-71
2023/08/08 03:01:58;;;;;;;0.80;0.80;;;;;;;;;;5000064;28;20162;-70
2023/08/08 03:04:23;;;;;;;1.23;0.77;;;;;;;;;;5001233;28;20414;-69
2023/08/08 03:06:49;;;;;;;2.38;0.90;;;;;;;;;;4998963;28;20053;-70
2023/08/08 03:09:14;;;;;;;1.40;0.77;;;;;;;;;;4999490;28;20045;-69
2023/08/08 03:11:44;;;;;;;0.80;0.80;;;;;;;;;;4998830;28;20038;-70
2023/08/08 03:14:13;;;;;;;0.65;0.65;;;;;;;;;;4999835;28;20132;-70
2023/08/08 03:16:38;;;;;;;2.30;0.70;;;;;;;;;;5003686;28;20072;-71
2023/08/08 03:19:06;;;;;;;0.60;0.60;;;;;;;;;;4998814;28;20132;-71
2023/08/08 03:21:31;;;;;;;0.60;0.60;;;;;;;;;;5003016;28;20155;-71
2023/08/08 03:23:57;;;;;;;1.10;0.63;;;;;;;;;;5004742;28;20128;-71
2023/08/08 03:26:23;;;;;;;0.70;0.70;;;;;;;;;;4999584;28;20677;-71
2023/08/08 03:28:50;;;;;;;2.15;0.80;;;;;;;;;;4998130;28;20120;-71
2023/08/08 03:31:20;;;;;;;1.70;0.90;;;;;;;;;;5000766;28;20050;-69
2023/08/08 03:33:47;;;;;;;2.63;0.88;;;;;;;;;;5004907;28;20042;-69
2023/08/08 03:36:13;;;;;;;1.02;0.70;;;;;;;;;;5010851;28;20044;-69
2023/08/08 03:38:38;;;;;;;0.63;0.63;;;;;;;;;;5007273;28;20054;-69
2023/08/08 03:41:05;;;;;;;0.98;0.68;;;;;;;;;;5004238;28;20049;-68
2023/08/08 03:43:31;;;;;;;1.73;0.90;;;;;;;;;;5000909;28;20054;-69
2023/08/08 03:45:56;;;;;;;0.70;0.60;;;;;;;;;;5000638;28;20033;-69
2023/08/08 03:48:22;;;;;;;0.93;0.70;;;;;;;;;;5010329;28;20573;-69
2023/08/08 03:50:48;;;;;;;1.20;0.65;;;;;;;;;;4998761;28;20164;-69
2023/08/08 03:53:14;;;;;;;0.60;0.60;;;;;;;;;;4999387;28;20054;-68
2023/08/08 03:55:39;;;;;;;16.05;1.63;;;;;;;;;;5001600;28;20438;-69
2023/08/08 03:58:07;;;;;;;0.85;0.70;;;;;;;;;;4999724;28;20046;-70
2023/08/08 04:00:33;;;;;;;1.13;0.88;;;;;;;;;;5000601;28;20193;-71
2023/08/08 04:02:59;;;;;;;0.60;0.60;;;;;;;;;;5004186;28;20149;-72
2023/08/08 04:05:24;;;;;;;2.28;0.80;;;;;;;;;;5004011;28;20042;-71
2023/08/08 04:07:51;;;;;;;0.60;0.60;;;;;;;;;;5005959;28;20045;-71
2023/08/08 04:10:16;;;;;;;0.80;0.80;;;;;;;;;;5009728;28;20056;-72
2023/08/08 04:12:42;;;;;;;0.70;0.70;;;;;;;;;;5012039;28;20050;-72
2023/08/08 04:15:07;;;;;;;0.60;0.60;;;;;;;;;;5006252;28;20050;-72
2023/08/08 04:17:33;;;;;;;1.65;0.80;;;;;;;;;;5001606;28;20144;-71
2023/08/08 04:19:58;;;;;;;0.60;0.60;;;;;;;;;;5001208;28;20107;-70
2023/08/08 04:22:24;;;;;;;0.60;0.60;;;;;;;;;;5014571;28;20454;-71
2023/08/08 04:24:49;;;;;;;2.65;0.65;;;;;;;;;;5005304;28;20041;-71
2023/08/08 04:27:14;;;;;;;0.50;0.50;;;;;;;;;;5014063;28;20076;-71
2023/08/08 04:29:40;;;;;;;1.98;0.90;;;;;;;;;;5014690;28;20046;-70
2023/08/08 04:32:06;;;;;;;0.77;0.77;;;;;;;;;;5012010;28;20145;-71
2023/08/08 04:34:31;;;;;;;4.90;0.77;;;;;;;;;;5004478;28;20056;-70
2023/08/08 04:36:56;;;;;;;0.68;0.68;;;;;;;;;;5013485;28;20037;-70
2023/08/08 04:39:22;;;;;;;1.15;0.85;;;;;;;;;;5012189;28;20506;-70
2023/08/08 04:41:47;;;;;;;3.50;0.77;;;;;;;;;;5029972;28;20048;-71
2023/08/08 04:44:13;;;;;;;0.80;0.80;;;;;;;;;;5013447;28;20130;-71
2023/08/08 04:46:38;;;;;;;1.42;0.82;;;;;;;;;;5014213;28;20529;-71
2023/08/08 04:49:04;;;;;;;1.45;0.80;;;;;;;;;;5006188;28;20042;-71
2023/08/08 04:51:29;;;;;;;0.90;0.80;;;;;;;;;;5017797;28;20046;-73
2023/08/08 04:53:55;;;;;;;1.00;0.90;;;;;;;;;;5010378;28;21091;-73
2023/08/08 04:56:20;;;;;;;0.70;0.70;;;;;;;;;;5003598;28;20054;-74
2023/08/08 04:58:45;;;;;;;1.00;0.73;;;;;;;;;;5003094;28;20053;-74
2023/08/08 05:01:14;;;;;;;1.60;0.70;;;;;;;;;;5003073;28;20128;-73
2023/08/08 05:03:39;;;;;;;0.65;0.65;;;;;;;;;;5005675;28;20042;-74
2023/08/08 05:06:05;;;;;;;2.85;0.90;;;;;;;;;;5002096;28;20057;-73
2023/08/08 05:08:30;;;;;;;0.70;0.68;;;;;;;;;;5001935;28;20096;-74
2023/08/08 05:10:56;;;;;;;2.50;0.98;;;;;;;;;;5008286;28;20581;-73
2023/08/08 05:13:21;;;;;;;0.70;0.70;;;;;;;;;;5006163;28;20053;-74
2023/08/08 05:15:47;;;;;;;0.70;0.70;;;;;;;;;;5003086;28;20107;-74
2023/08/08 05:18:12;;;;;;;1.08;0.80;;;;;;;;;;5006001;28;20054;-74
2023/08/08 05:20:38;;;;;;;0.60;0.60;;;;;;;;;;5004214;28;20107;-73
2023/08/08 05:23:04;;;;;;;1.15;0.77;;;;;;;;;;5014845;28;20042;-73
2023/08/08 05:25:29;;;;;;;1.13;0.70;;;;;;;;;;5021187;28;20064;-73
2023/08/08 05:27:55;;;;;;;0.90;0.73;;;;;;;;;;5012715;28;20062;-74
2023/08/08 05:30:21;;;;;;;0.77;0.70;;;;;;;;;;5012447;28;20621;-72
2023/08/08 05:32:46;;;;;;;1.05;0.90;;;;;;;;;;5002943;28;20627;-72
2023/08/08 05:35:12;;;;;;;0.73;0.70;;;;;;;;;;5001756;28;20057;-72
2023/08/08 05:37:38;;;;;;;2.80;0.68;;;;;;;;;;5003336;28;20077;-72
2023/08/08 05:40:05;;;;;;;0.88;0.85;;;;;;;;;;5002943;28;20042;-72
2023/08/08 05:42:31;;;;;;;2.38;0.93;;;;;;;;;;5006262;28;20051;-72
2023/08/08 05:44:57;;;;;;;2.30;0.95;;;;;;;;;;5001486;28;20079;-73
2023/08/08 05:47:22;;;;;;;3.13;1.17;;;;;;;;;;5002122;28;20049;-74
2023/08/08 05:49:48;;;;;;;3.58;0.85;;;;;;;;;;5003018;28;20137;-73
2023/08/08 05:52:13;;;;;;;1.27;0.82;;;;;;;;;;5005928;28;20128;-72
2023/08/08 05:54:39;;;;;;;4.90;0.90;;;;;;;;;;5001822;28;20418;-74
2023/08/08 05:57:04;;;;;;;0.70;0.70;;;;;;;;;;5004330;28;20049;-72
2023/08/08 05:59:30;;;;;;;1.95;1.00;;;;;;;;;;5002400;28;20387;-73
2023/08/08 06:01:55;;;;;;;4.10;1.02;;;;;;;;;;5003945;28;20069;-73
2023/08/08 06:04:21;;;;;;;0.80;0.75;;;;;;;;;;5008299;28;20050;-73
2023/08/08 06:06:48;;;;;;;1.90;0.75;;;;;;;;;;5001579;28;20041;-75
2023/08/08 06:09:15;;;;;;;1.40;1.10;;;;;;;;;;5004680;28;20049;-75
2023/08/08 06:11:40;;;;;;;1.05;0.95;;;;;;;;;;5002081;28;20947;-72
2023/08/08 06:14:05;;;;;;;0.98;0.80;;;;;;;;;;5002231;28;20048;-71
2023/08/08 06:16:31;;;;;;;2.53;1.05;;;;;;;;;;5001935;28;20060;-73
2023/08/08 06:18:56;;;;;;;1.38;1.00;;;;;;;;;;5004569;28;20033;-72
2023/08/08 06:21:22;;;;;;;1.92;0.70;;;;;;;;;;5006358;28;20133;-73
2023/08/08 06:23:47;;;;;;;0.52;0.52;;;;;;;;;;5002160;28;20054;-72
2023/08/08 06:26:13;;;;;;;1.10;0.80;;;;;;;;;;5000439;28;20070;-72
2023/08/08 06:28:39;;;;;;;1.52;0.80;;;;;;;;;;5001332;28;20440;-72
2023/08/08 06:31:05;;;;;;;0.65;0.65;;;;;;;;;;5002175;28;20491;-72
2023/08/08 06:33:30;;;;;;;5.47;1.02;;;;;;;;;;5012548;28;20056;-72
2023/08/08 06:35:56;;;;;;;1.92;1.20;;;;;;;;;;5011636;28;20136;-73
2023/08/08 06:38:21;;;;;;;2.08;0.57;;;;;;;;;;5007247;28;20072;-73
2023/08/08 06:40:47;;;;;;;1.40;0.68;;;;;;;;;;5002674;28;20240;-73
2023/08/08 06:43:13;;;;;;;0.70;0.70;;;;;;;;;;5011509;28;20136;-72
2023/08/08 06:45:39;;;;;;;1.27;0.75;;;;;;;;;;5001618;28;20503;-74
2023/08/08 06:48:05;;;;;;;0.82;0.80;;;;;;;;;;5008433;28;20044;-73
2023/08/08 06:50:30;;;;;;;0.80;0.77;;;;;;;;;;5010754;28;20049;-72
2023/08/08 06:52:56;;;;;;;0.82;0.82;;;;;;;;;;5005218;28;20057;-74
2023/08/08 06:55:21;;;;;;;0.80;0.80;;;;;;;;;;5003094;28;20053;-73
2023/08/08 06:57:46;;;;;;;2.00;0.70;;;;;;;;;;5001270;28;20151;-73
2023/08/08 07:00:13;;;;;;;0.88;0.68;;;;;;;;;;5011455;28;20069;-73
2023/08/08 07:02:39;;;;;;;1.50;0.80;;;;;;;;;;4986282;28;20053;-73
2023/08/08 07:05:06;;;;;;;1.70;1.00;;;;;;;;;;5000901;28;20065;-73
2023/08/08 07:07:33;;;;;;;0.80;0.80;;;;;;;;;;5009162;28;20081;-74
2023/08/08 07:09:59;;;;;;;1.02;0.93;;;;;;;;;;5003265;28;20045;-73
2023/08/08 07:12:25;;;;;;;1.20;0.82;;;;;;;;;;5002335;28;20038;-74
2023/08/08 07:14:50;;;;;;;0.80;0.80;;;;;;;;;;5008288;28;20049;-73
2023/08/08 07:17:15;;;;;;;0.80;0.77;;;;;;;;;;5010444;28;20056;-74
2023/08/08 07:19:41;;;;;;;0.60;0.60;;;;;;;;;;5007699;28;20063;-73
2023/08/08 07:22:07;;;;;;;0.70;0.70;;;;;;;;;;5010192;28;20147;-73
2023/08/08 07:24:32;;;;;;;0.95;0.70;;;;;;;;;;5010543;28;20052;-74
2023/08/08 07:26:58;;;;;;;0.75;0.75;;;;;;;;;;5011241;28;20076;-74
2023/08/08 07:29:24;;;;;;;1.13;0.80;;;;;;;;;;5025928;28;20049;-74
2023/08/08 07:31:54;;;;;;;0.80;0.80;;;;;;;;;;5014743;28;20053;-73
2023/08/08 07:34:20;;;;;;;1.15;0.80;;;;;;;;;;5009058;28;20054;-74
2023/08/08 07:36:47;;;;;;;0.60;0.60;;;;;;;;;;5011231;28;20057;-74
2023/08/08 07:39:13;;;;;;;3.33;0.90;;;;;;;;;;5012429;28;20045;-72
2023/08/08 07:41:39;;;;;;;0.57;0.57;;;;;;;;;;5012181;28;20856;-73
2023/08/08 07:44:05;;;;;;;1.20;0.90;;;;;;;;;;5009288;28;20060;-73
2023/08/08 07:46:31;;;;;;;1.35;0.63;;;;;;;;;;5008491;28;20056;-73
2023/08/08 07:48:59;;;;;;;0.60;0.60;;;;;;;;;;5005835;28;20045;-75
2023/08/08 07:51:25;;;;;;;0.70;0.70;;;;;;;;;;5011189;28;20418;-74
2023/08/08 07:53:50;;;;;;;0.77;0.70;;;;;;;;;;5012695;28;20540;-75
2023/08/08 07:56:16;;;;;;;2.13;0.80;;;;;;;;;;5012747;28;20037;-74
2023/08/08 07:58:41;;;;;;;1.67;0.75;;;;;;;;;;5013063;28;20049;-74
2023/08/08 08:01:06;;;;;;;1.13;0.80;;;;;;;;;;5012966;28;20053;-75
2023/08/08 08:03:32;;;;;;;0.90;0.70;;;;;;;;;;5013218;28;20049;-73
2023/08/08 08:05:57;;;;;;;1.55;1.45;;;;;;;;;;5015857;28;20486;-74
2023/08/08 08:08:24;;;;;;;1.00;0.90;;;;;;;;;;5013352;28;20042;-75
2023/08/08 08:10:50;;;;;;;0.70;0.70;;;;;;;;;;5012349;28;20064;-73
2023/08/08 08:13:16;;;;;;;1.13;0.90;;;;;;;;;;5011182;28;20092;-74
2023/08/08 08:15:43;;;;;;;0.98;0.88;;;;;;;;;;5012875;28;20050;-74
2023/08/08 08:18:08;;;;;;;1.05;0.88;;;;;;;;;;5014425;28;20053;-74
2023/08/08 08:20:34;;;;;;;1.05;0.75;;;;;;;;;;5007934;28;20481;-74
2023/08/08 08:22:59;;;;;;;1.13;0.63;;;;;;;;;;5013210;28;20096;-74
2023/08/08 08:25:24;;;;;;;0.70;0.70;;;;;;;;;;5016049;28;20049;-74
2023/08/08 08:27:50;;;;;;;0.80;0.80;;;;;;;;;;5010954;28;20100;-74
2023/08/08 08:30:15;;;;;;;0.75;0.75;;;;;;;;;;5009483;28;20082;-75
2023/08/08 08:32:41;;;;;;;0.88;0.77;;;;;;;;;;5013270;28;20080;-73
2023/08/08 08:35:07;;;;;;;1.70;0.82;;;;;;;;;;5013052;28;20112;-73
2023/08/08 08:37:33;;;;;;;1.02;0.68;;;;;;;;;;5014312;28;20050;-73
2023/08/08 08:39:59;;;;;;;1.50;0.90;;;;;;;;;;5016145;28;20938;-73
2023/08/08 08:42:26;;;;;;;0.93;0.80;;;;;;;;;;5016231;28;20041;-73
2023/08/08 08:44:56;;;;;;;1.38;0.90;;;;;;;;;;5012821;28;20053;-74
2023/08/08 08:47:23;;;;;;;1.58;0.73;;;;;;;;;;5014144;28;20065;-74
2023/08/08 08:49:50;;;;;;;0.77;0.77;;;;;;;;;;5009299;28;20045;-73
2023/08/08 08:52:16;;;;;;;1.10;0.90;;;;;;;;;;5012284;28;20049;-73
2023/08/08 08:54:42;;;;;;;1.15;0.80;;;;;;;;;;5010691;28;20081;-74
2023/08/08 08:57:09;;;;;;;1.60;0.95;;;;;;;;;;5007172;28;20081;-75
2023/08/08 08:59:34;;;;;;;1.08;0.80;;;;;;;;;;5011109;28;20177;-73
2023/08/08 09:02:00;;;;;;;2.78;0.70;;;;;;;;;;5013568;28;20581;-74
2023/08/08 09:04:28;;;;;;;0.85;0.85;;;;;;;;;;5009144;28;20045;-73
2023/08/08 09:06:54;;;;;;;0.80;0.80;;;;;;;;;;5010862;28;20091;-75
2023/08/08 09:09:21;;;;;;;0.82;0.70;;;;;;;;;;5014381;28;20061;-75
2023/08/08 09:11:51;;;;;;;0.68;0.60;;;;;;;;;;5013195;28;20054;-75
2023/08/08 09:14:26;;;;;;;1.60;0.88;;;;;;;;;;5016420;28;20490;-74
2023/08/08 09:16:56;;;;;;;1.38;0.70;;;;;;;;;;5013466;28;20081;-70
2023/08/08 09:19:23;;;;;;;1.63;0.85;;;;;;;;;;5016045;28;20053;-73
2023/08/08 09:21:49;;;;;;;0.70;0.70;;;;;;;;;;5013940;28;20053;-75
2023/08/08 09:24:15;;;;;;;0.90;0.70;;;;;;;;;;5007344;28;20512;-73
2023/08/08 09:26:42;;;;;;;0.80;0.80;;;;;;;;;;5005423;28;20046;-74
2023/08/08 09:29:08;;;;;;;1.17;0.73;;;;;;;;;;5009797;28;20045;-74
2023/08/08 09:31:36;;;;;;;0.60;0.60;;;;;;;;;;5006604;28;20081;-74
2023/08/08 09:34:03;;;;;;;0.70;0.50;;;;;;;;;;5009511;28;20713;-75
2023/08/08 09:36:29;;;;;;;0.85;0.55;;;;;;;;;;5003046;28;20082;-75
2023/08/08 09:38:55;;;;;;;0.60;0.60;;;;;;;;;;4999254;28;20133;-74
2023/08/08 09:41:22;;;;;;;0.70;0.70;;;;;;;;;;5006105;28;20057;-74
2023/08/08 09:43:50;;;;;;;1.00;0.65;;;;;;;;;;5012387;28;20124;-74
2023/08/08 09:46:15;;;;;;;0.60;0.50;;;;;;;;;;5009218;28;20037;-75
2023/08/08 09:48:42;;;;;;;1.73;0.88;;;;;;;;;;4991836;28;20060;-74
2023/08/08 09:51:08;;;;;;;0.70;0.70;;;;;;;;;;5009715;28;20128;-75
2023/08/08 09:53:34;;;;;;;0.93;0.65;;;;;;;;;;5003066;28;20058;-76
2023/08/08 09:56:02;;;;;;;0.52;0.52;;;;;;;;;;5008612;28;20056;-74
2023/08/08 09:58:28;;;;;;;0.93;0.47;;;;;;;;;;5006859;28;20065;-74
2023/08/08 10:00:53;;;;;;;0.77;0.70;;;;;;;;;;5010260;28;20045;-74
2023/08/08 10:03:19;;;;;;;0.50;0.50;;;;;;;;;;5005859;28;20056;-74
2023/08/08 10:05:45;;;;;;;0.90;0.75;;;;;;;;;;5006987;28;20053;-75
2023/08/08 10:08:11;;;;;;;1.02;0.60;;;;;;;;;;5002982;28;20057;-74
2023/08/08 10:10:37;;;;;;;3.17;0.70;;;;;;;;;;5005264;28;20046;-74
2023/08/08 10:13:03;;;;;;;0.82;0.50;;;;;;;;;;5007933;28;20045;-75
2023/08/08 10:15:29;;;;;;;0.70;0.63;;;;;;;;;;5019072;28;20069;-75
2023/08/08 10:17:59;;;;;;;2.10;0.80;;;;;;;;;;5008856;28;20160;-75
2023/08/08 10:20:25;;;;;;;1.13;0.73;;;;;;;;;;5007758;28;20049;-77
2023/08/08 10:22:54;;;;;;;0.63;0.63;;;;;;;;;;5007602;28;20382;-74
2023/08/08 10:25:27;;;;;;;0.90;0.68;;;;;;;;;;5008949;28;20046;-75
2023/08/08 10:28:10;;;;;;;1.42;0.65;;;;;;;;;;5007624;28;20060;-76
2023/08/08 10:31:02;;;;;;;1.25;0.50;;;;;;;;;;5002226;28;20164;-75
2023/08/08 10:33:41;;;;;;;0.80;0.80;;;;;;;;;;5001897;28;20764;-76
2023/08/08 10:36:07;;;;;;;0.75;0.60;;;;;;;;;;5011394;28;20499;-76
2023/08/08 10:38:43;;;;;;;0.65;0.65;;;;;;;;;;5013446;28;20103;-76
2023/08/08 10:41:11;;;;;;;0.82;0.60;;;;;;;;;;5009221;28;20058;-75
2023/08/08 10:43:37;;;;;;;0.60;0.60;;;;;;;;;;5007736;28;20049;-75
2023/08/08 10:46:04;;;;;;;0.93;0.70;;;;;;;;;;5007980;28;20095;-76
2023/08/08 10:48:30;;;;;;;0.95;0.63;;;;;;;;;;5010766;28;20164;-75
2023/08/08 10:50:58;;;;;;;0.90;0.90;;;;;;;;;;5012518;28;20060;-76
2023/08/08 10:53:28;;;;;;;1.33;0.75;;;;;;;;;;5006018;28;20496;-76
2023/08/08 10:56:02;;;;;;;0.55;0.55;;;;;;;;;;5003274;28;20049;-76
2023/08/08 10:58:39;;;;;;;0.88;0.60;;;;;;;;;;5003234;28;20050;-76
2023/08/08 11:01:09;;;;;;;0.77;0.68;;;;;;;;;;5006451;28;20049;-75
2023/08/08 11:03:36;;;;;;;1.45;0.70;;;;;;;;;;5013771;28;20473;-76
2023/08/08 11:06:03;;;;;;;0.77;0.77;;;;;;;;;;5006666;28;20411;-76
2023/08/08 11:08:32;;;;;;;0.90;0.60;;;;;;;;;;5011904;28;20046;-75
2023/08/08 11:10:59;;;;;;;0.60;0.60;;;;;;;;;;5008068;28;20046;-74
2023/08/08 11:13:24;;;;;;;0.93;0.68;;;;;;;;;;5008879;28;20045;-74
2023/08/08 11:15:50;;;;;;;1.23;0.70;;;;;;;;;;5004806;28;20045;-74
2023/08/08 11:18:17;;;;;;;1.23;0.70;;;;;;;;;;5010968;28;20140;-74
2023/08/08 11:20:43;;;;;;;0.70;0.70;;;;;;;;;;5003430;28;20477;-75
2023/08/08 11:23:10;;;;;;;0.43;0.43;;;;;;;;;;5009918;28;20057;-76
2023/08/08 11:25:36;;;;;;;1.55;0.77;;;;;;;;;;5006540;28;20057;-75
2023/08/08 11:28:03;;;;;;;0.73;0.60;;;;;;;;;;5000272;28;20037;-78
2023/08/08 11:30:33;;;;;;;2.53;0.60;;;;;;;;;;5004500;28;20049;-76
2023/08/08 11:32:59;;;;;;;2.10;0.70;;;;;;;;;;5004406;28;20049;-76
2023/08/08 11:35:27;;;;;;;1.45;0.75;;;;;;;;;;4997645;28;20046;-76
2023/08/08 11:37:54;;;;;;;0.75;0.70;;;;;;;;;;5001779;28;20049;-75
2023/08/08 11:40:23;;;;;;;1.52;0.63;;;;;;;;;;4997870;28;20053;-75
2023/08/08 11:42:50;;;;;;;4.47;0.82;;;;;;;;;;4999433;28;20038;-77
2023/08/08 11:45:17;;;;;;;0.73;0.50;;;;;;;;;;4999464;28;20046;-74
2023/08/08 11:47:43;;;;;;;1.70;0.73;;;;;;;;;;4999486;28;20505;-75
2023/08/08 11:50:10;;;;;;;0.68;0.68;;;;;;;;;;4999556;28;20651;-75
2023/08/08 11:52:41;;;;;;;1.13;0.52;;;;;;;;;;4999334;28;20072;-74
2023/08/08 11:55:08;;;;;;;1.13;0.80;;;;;;;;;;4998710;28;20112;-74
2023/08/08 11:57:35;;;;;;;0.50;0.50;;;;;;;;;;4999070;28;20060;-74
2023/08/08 12:00:03;;;;;;;1.42;0.65;;;;;;;;;;4999864;28;20061;-74
2023/08/08 12:02:42;;;;;;;0.60;0.60;;;;;;;;;;5013637;28;20095;-74
2023/08/08 12:05:11;;;;;;;0.70;0.70;;;;;;;;;;5008142;28;20467;-74
2023/08/08 12:07:37;;;;;;;2.25;0.77;;;;;;;;;;5001113;28;20437;-74
2023/08/08 12:10:06;;;;;;;0.65;0.63;;;;;;;;;;5013512;28;20871;-74
2023/08/08 12:12:35;;;;;;;2.08;0.70;;;;;;;;;;4997993;28;20056;-75
2023/08/08 12:15:05;;;;;;;0.60;0.60;;;;;;;;;;5016014;28;20136;-74
2023/08/08 12:17:31;;;;;;;0.70;0.70;;;;;;;;;;5011232;28;20065;-73
2023/08/08 12:20:00;;;;;;;0.85;0.70;;;;;;;;;;5004683;28;20045;-73
2023/08/08 12:22:25;;;;;;;1.25;0.65;;;;;;;;;;5010946;28;20446;-74
2023/08/08 12:24:51;;;;;;;2.25;0.60;;;;;;;;;;5011371;28;20514;-74
2023/08/08 12:27:17;;;;;;;2.83;0.80;;;;;;;;;;5011616;28;20042;-74
2023/08/08 12:29:42;;;;;;;0.85;0.60;;;;;;;;;;5008667;28;20049;-74
2023/08/08 12:32:08;;;;;;;3.00;0.70;;;;;;;;;;5008917;28;20323;-74
2023/08/08 12:34:34;;;;;;;1.35;0.65;;;;;;;;;;5006974;28;20042;-74
2023/08/08 12:37:00;;;;;;;0.57;0.57;;;;;;;;;;5007282;28;20056;-75
2023/08/08 12:39:25;;;;;;;0.95;0.73;;;;;;;;;;5011113;28;20038;-75
2023/08/08 12:41:51;;;;;;;1.38;0.65;;;;;;;;;;5013549;28;20073;-74
2023/08/08 12:44:17;;;;;;;0.60;0.60;;;;;;;;;;5015842;28;20073;-74
2023/08/08 12:46:42;;;;;;;0.82;0.60;;;;;;;;;;5014641;28;20049;-74
2023/08/08 12:49:08;;;;;;;0.60;0.60;;;;;;;;;;5015731;28;20480;-75
2023/08/08 12:51:33;;;;;;;1.52;0.70;;;;;;;;;;5021038;28;20048;-74
2023/08/08 12:53:59;;;;;;;0.77;0.73;;;;;;;;;;5013872;28;20085;-73
2023/08/08 12:56:24;;;;;;;1.02;0.80;;;;;;;;;;5010834;28;20091;-74
2023/08/08 12:58:50;;;;;;;1.50;0.75;;;;;;;;;;5014252;28;20861;-75
2023/08/08 13:01:15;;;;;;;0.57;0.57;;;;;;;;;;5014675;28;20045;-73
2023/08/08 13:03:41;;;;;;;0.98;0.88;;;;;;;;;;5017512;28;20060;-73
2023/08/08 13:06:06;;;;;;;1.05;0.70;;;;;;;;;;5021161;28;20049;-74
2023/08/08 13:08:32;;;;;;;1.88;0.80;;;;;;;;;;5022558;28;20049;-74
2023/08/08 13:10:58;;;;;;;0.50;0.50;;;;;;;;;;5029352;28;20050;-73
2023/08/08 13:13:25;;;;;;;0.93;0.50;;;;;;;;;;5023920;28;20140;-74
2023/08/08 13:15:51;;;;;;;1.40;0.90;;;;;;;;;;5016417;28;20410;-74
2023/08/08 13:18:17;;;;;;;0.60;0.60;;;;;;;;;;5013200;28;20060;-73
2023/08/08 13:20:43;;;;;;;2.50;0.80;;;;;;;;;;5017288;28;20053;-74
2023/08/08 13:23:08;;;;;;;1.33;0.57;;;;;;;;;;5027037;28;20501;-74
2023/08/08 13:25:34;;;;;;;1.98;0.73;;;;;;;;;;5012601;28;20046;-74
2023/08/08 13:28:00;;;;;;;1.73;0.82;;;;;;;;;;5009539;28;20079;-73
2023/08/08 13:30:26;;;;;;;3.63;0.70;;;;;;;;;;5018083;28;20490;-73
2023/08/08 13:32:52;;;;;;;1.83;0.90;;;;;;;;;;5010673;28;20112;-74
2023/08/08 13:35:17;;;;;;;0.70;0.70;;;;;;;;;;5017302;28;20061;-73
2023/08/08 13:37:45;;;;;;;0.70;0.60;;;;;;;;;;5013080;28;20145;-73
2023/08/08 13:40:11;;;;;;;0.63;0.55;;;;;;;;;;5010398;28;20556;-73
2023/08/08 13:42:36;;;;;;;1.38;0.70;;;;;;;;;;5013847;28;20088;-73
2023/08/08 13:45:02;;;;;;;1.88;0.70;;;;;;;;;;5011457;28;20115;-74
2023/08/08 13:47:27;;;;;;;1.35;0.88;;;;;;;;;;5013163;28;20056;-74
2023/08/08 13:49:53;;;;;;;0.68;0.60;;;;;;;;;;5011173;28;20067;-73
2023/08/08 13:52:18;;;;;;;0.93;0.70;;;;;;;;;;5009264;28;20157;-74
2023/08/08 13:54:44;;;;;;;0.90;0.73;;;;;;;;;;4990135;28;20161;-74
2023/08/08 13:57:09;;;;;;;0.68;0.65;;;;;;;;;;4991184;28;20731;-74
2023/08/08 13:59:35;;;;;;;0.65;0.65;;;;;;;;;;5019802;28;20552;-74
2023/08/08 14:02:00;;;;;;;1.25;0.60;;;;;;;;;;5003701;28;20052;-74
2023/08/08 14:04:26;;;;;;;1.75;0.80;;;;;;;;;;5010819;28;20072;-73
2023/08/08 14:06:51;;;;;;;1.48;0.70;;;;;;;;;;5010615;28;21022;-73
2023/08/08 14:09:16;;;;;;;0.60;0.60;;;;;;;;;;5007237;28;20056;-74
2023/08/08 14:11:42;;;;;;;1.02;0.68;;;;;;;;;;5008667;28;20148;-74
2023/08/08 14:14:07;;;;;;;0.70;0.70;;;;;;;;;;5009028;28;20119;-74
2023/08/08 14:16:33;;;;;;;0.65;0.52;;;;;;;;;;5011021;28;20060;-74
2023/08/08 14:18:58;;;;;;;4.63;0.90;;;;;;;;;;5010274;28;20064;-74
2023/08/08 14:21:24;;;;;;;2.92;0.50;;;;;;;;;;5008715;28;20100;-73
2023/08/08 14:23:49;;;;;;;0.60;0.60;;;;;;;;;;5005068;28;20096;-74
2023/08/08 14:26:15;;;;;;;0.98;0.80;;;;;;;;;;5000528;28;20037;-74
2023/08/08 14:28:40;;;;;;;1.08;0.75;;;;;;;;;;4998977;28;20961;-75
2023/08/08 14:31:06;;;;;;;0.50;0.45;;;;;;;;;;5021021;28;20068;-74
2023/08/08 14:33:32;;;;;;;0.60;0.55;;;;;;;;;;4990493;28;20053;-73
2023/08/08 14:35:58;;;;;;;0.75;0.73;;;;;;;;;;5009901;28;20077;-74
2023/08/08 14:38:25;;;;;;;1.63;0.80;;;;;;;;;;5003750;28;20156;-74